createdAt,value
2022-10-30T00:00:04.884Z,0.00
2022-10-30T00:01:04.865Z,0.00
2022-10-30T00:02:04.976Z,0.00
2022-10-30T00:03:04.941Z,0.00
2022-10-30T00:04:04.840Z,0.00
2022-10-30T00:05:04.835Z,0.00
2022-10-30T00:06:04.847Z,0.00
2022-10-30T00:07:04.808Z,0.00
2022-10-30T00:08:04.789Z,0.00
2022-10-30T00:09:04.789Z,0.00
2022-10-30T00:10:04.798Z,0.00
2022-10-30T00:11:04.749Z,0.00
2022-10-30T00:12:04.739Z,0.00
2022-10-30T00:13:04.730Z,0.00
2022-10-30T00:14:04.750Z,0.00
2022-10-30T00:15:04.709Z,0.00
2022-10-30T00:16:04.709Z,0.00
2022-10-30T00:17:04.689Z,0.00
2022-10-30T00:18:04.780Z,0.00
2022-10-30T00:19:04.681Z,0.00
2022-10-30T00:20:04.650Z,0.00
2022-10-30T00:21:04.672Z,0.00
2022-10-30T00:22:36.792Z,0.00
2022-10-30T00:23:36.746Z,0.00
2022-10-30T00:24:36.751Z,0.00
2022-10-30T00:25:36.747Z,0.00
2022-10-30T00:26:36.733Z,0.00
2022-10-30T00:27:36.712Z,0.00
2022-10-30T00:28:36.699Z,0.00
2022-10-30T00:29:36.724Z,0.00
2022-10-30T00:30:36.664Z,0.00
2022-10-30T00:31:36.675Z,0.00
2022-10-30T00:32:36.663Z,0.00
2022-10-30T00:33:36.637Z,0.00
2022-10-30T00:34:36.624Z,0.00
2022-10-30T00:35:36.741Z,0.00
2022-10-30T00:36:36.635Z,0.00
2022-10-30T00:37:36.604Z,0.00
2022-10-30T00:38:36.583Z,0.00
2022-10-30T00:39:36.585Z,0.00
2022-10-30T00:40:36.576Z,0.00
2022-10-30T00:41:36.576Z,0.00
2022-10-30T00:42:36.546Z,0.00
2022-10-30T00:43:36.551Z,0.00
2022-10-30T00:44:36.529Z,0.00
2022-10-30T00:45:36.517Z,0.00
2022-10-30T00:46:36.510Z,0.00
2022-10-30T00:47:36.497Z,0.00
2022-10-30T00:48:36.504Z,0.00
2022-10-30T00:49:36.467Z,0.00
2022-10-30T00:50:36.459Z,0.00
2022-10-30T00:51:36.439Z,0.00
2022-10-30T00:52:36.431Z,0.00
2022-10-30T00:53:36.422Z,0.00
2022-10-30T00:54:36.421Z,0.00
2022-10-30T00:55:36.412Z,0.00
2022-10-30T00:56:36.389Z,0.00
2022-10-30T00:57:36.380Z,0.00
2022-10-30T00:58:36.362Z,0.00
2022-10-30T00:59:36.372Z,0.00
2022-10-30T01:00:36.344Z,0.00
2022-10-30T01:01:36.459Z,0.00
2022-10-30T01:02:36.407Z,0.00
2022-10-30T01:03:36.330Z,0.00
2022-10-30T01:04:36.313Z,0.00
2022-10-30T01:05:36.306Z,0.00
2022-10-30T01:06:36.293Z,0.00
2022-10-30T01:07:36.281Z,0.00
2022-10-30T01:08:36.327Z,0.00
2022-10-30T01:09:36.250Z,0.00
2022-10-30T01:10:36.243Z,0.00
2022-10-30T01:11:36.243Z,0.00
2022-10-30T01:12:36.223Z,0.00
2022-10-30T01:13:36.214Z,0.00
2022-10-30T01:14:36.224Z,0.00
2022-10-30T01:15:36.184Z,0.00
2022-10-30T01:16:36.185Z,0.00
2022-10-30T01:17:36.166Z,0.00
2022-10-30T01:18:36.145Z,0.00
2022-10-30T01:19:36.143Z,0.00
2022-10-30T01:20:36.155Z,0.00
2022-10-30T01:21:36.145Z,0.00
2022-10-30T01:22:36.116Z,0.00
2022-10-30T01:23:36.137Z,0.00
2022-10-30T01:24:36.103Z,0.00
2022-10-30T01:25:36.073Z,0.00
2022-10-30T01:26:36.064Z,0.00
2022-10-30T01:27:36.091Z,0.00
2022-10-30T01:28:36.067Z,0.00
2022-10-30T01:29:36.044Z,0.00
2022-10-30T01:30:36.017Z,0.00
2022-10-30T01:31:36.055Z,0.00
2022-10-30T01:32:35.996Z,0.00
2022-10-30T01:33:36.000Z,0.00
2022-10-30T01:34:36.091Z,0.00
2022-10-30T01:35:35.968Z,0.00
2022-10-30T01:36:35.956Z,0.00
2022-10-30T01:37:35.969Z,0.00
2022-10-30T01:38:35.943Z,0.00
2022-10-30T01:39:35.932Z,0.00
2022-10-30T01:40:35.929Z,0.00
2022-10-30T01:41:35.918Z,0.00
2022-10-30T01:42:35.901Z,0.00
2022-10-30T01:43:35.883Z,0.00
2022-10-30T01:44:35.871Z,0.00
2022-10-30T01:45:35.871Z,0.00
2022-10-30T01:46:35.859Z,0.00
2022-10-30T01:47:35.842Z,0.00
2022-10-30T01:48:35.851Z,0.00
2022-10-30T01:49:35.833Z,0.00
2022-10-30T01:50:35.821Z,0.00
2022-10-30T01:51:35.801Z,0.00
2022-10-30T01:52:35.782Z,0.00
2022-10-30T01:53:35.789Z,0.00
2022-10-30T01:54:35.763Z,0.00
2022-10-30T01:55:35.765Z,0.00
2022-10-30T01:56:35.733Z,0.00
2022-10-30T01:57:35.732Z,0.00
2022-10-30T01:58:35.753Z,0.00
2022-10-30T01:59:35.706Z,0.00
2022-10-30T02:00:35.705Z,0.00
2022-10-30T02:01:35.909Z,0.00
2022-10-30T02:02:35.879Z,0.00
2022-10-30T02:03:35.676Z,0.00
2022-10-30T02:04:35.677Z,0.00
2022-10-30T02:05:35.655Z,0.00
2022-10-30T02:06:35.636Z,0.00
2022-10-30T02:07:35.626Z,0.00
2022-10-30T02:08:35.647Z,0.00
2022-10-30T02:09:35.599Z,0.00
2022-10-30T02:10:35.598Z,0.00
2022-10-30T02:11:35.587Z,0.00
2022-10-30T02:12:35.566Z,0.00
2022-10-30T02:13:35.568Z,0.00
2022-10-30T02:14:35.549Z,0.00
2022-10-30T02:15:35.529Z,0.00
2022-10-30T02:16:35.528Z,0.00
2022-10-30T02:17:35.549Z,0.00
2022-10-30T02:18:35.550Z,0.00
2022-10-30T02:19:35.508Z,0.00
2022-10-30T02:20:35.483Z,0.00
2022-10-30T02:21:35.482Z,0.00
2022-10-30T02:22:35.523Z,0.00
2022-10-30T02:23:35.479Z,0.00
2022-10-30T02:24:35.450Z,0.00
2022-10-30T02:25:35.439Z,0.00
2022-10-30T02:26:35.420Z,0.00
2022-10-30T02:27:35.429Z,0.00
2022-10-30T02:28:35.431Z,0.00
2022-10-30T02:29:35.400Z,0.00
2022-10-30T02:30:35.371Z,0.00
2022-10-30T02:31:35.383Z,0.00
2022-10-30T02:32:35.361Z,0.00
2022-10-30T02:33:35.340Z,0.00
2022-10-30T02:34:35.361Z,0.00
2022-10-30T02:35:35.335Z,0.00
2022-10-30T02:36:35.323Z,0.00
2022-10-30T02:37:35.293Z,0.00
2022-10-30T02:38:35.324Z,0.00
2022-10-30T02:39:35.275Z,0.00
2022-10-30T02:40:35.295Z,0.00
2022-10-30T02:41:35.282Z,0.00
2022-10-30T02:42:35.261Z,0.00
2022-10-30T02:43:35.231Z,0.00
2022-10-30T02:44:35.242Z,0.00
2022-10-30T02:45:35.227Z,0.00
2022-10-30T02:46:35.234Z,0.00
2022-10-30T02:47:35.188Z,0.00
2022-10-30T02:48:35.205Z,0.00
2022-10-30T02:49:35.175Z,0.00
2022-10-30T02:50:35.156Z,0.00
2022-10-30T02:51:35.176Z,0.00
2022-10-30T02:52:35.152Z,0.00
2022-10-30T02:53:35.156Z,0.00
2022-10-30T02:54:35.137Z,0.00
2022-10-30T02:55:35.107Z,0.00
2022-10-30T02:56:35.111Z,0.00
2022-10-30T02:57:35.078Z,0.00
2022-10-30T02:58:35.098Z,0.00
2022-10-30T02:59:35.076Z,0.00
2022-10-30T03:00:35.079Z,0.00
2022-10-30T03:01:35.108Z,0.00
2022-10-30T03:02:35.028Z,0.00
2022-10-30T03:03:35.018Z,0.00
2022-10-30T03:04:35.018Z,0.00
2022-10-30T03:05:35.009Z,0.00
2022-10-30T03:06:35.016Z,0.00
2022-10-30T03:07:34.970Z,0.00
2022-10-30T03:08:34.980Z,0.00
2022-10-30T03:09:34.959Z,0.00
2022-10-30T03:10:34.970Z,0.00
2022-10-30T03:11:34.944Z,0.00
2022-10-30T03:12:34.921Z,0.00
2022-10-30T03:13:34.940Z,0.00
2022-10-30T03:14:34.912Z,0.00
2022-10-30T03:15:34.900Z,0.00
2022-10-30T03:16:34.911Z,0.00
2022-10-30T03:17:34.914Z,0.00
2022-10-30T03:18:34.872Z,0.00
2022-10-30T03:19:34.854Z,0.00
2022-10-30T03:20:34.862Z,0.00
2022-10-30T03:21:34.822Z,0.00
2022-10-30T03:22:34.843Z,0.00
2022-10-30T03:23:34.813Z,0.00
2022-10-30T03:24:34.833Z,0.00
2022-10-30T03:25:34.784Z,0.00
2022-10-30T03:26:34.784Z,0.00
2022-10-30T03:27:34.756Z,0.00
2022-10-30T03:28:34.778Z,0.00
2022-10-30T03:29:34.744Z,0.00
2022-10-30T03:30:34.754Z,0.00
2022-10-30T03:31:34.715Z,0.00
2022-10-30T03:32:34.705Z,0.00
2022-10-30T03:33:34.705Z,0.00
2022-10-30T03:34:34.715Z,0.00
2022-10-30T03:35:34.666Z,0.00
2022-10-30T03:36:34.666Z,0.00
2022-10-30T03:37:34.656Z,0.00
2022-10-30T03:38:34.657Z,0.00
2022-10-30T03:39:34.646Z,0.00
2022-10-30T03:40:34.617Z,0.00
2022-10-30T03:41:34.617Z,0.00
2022-10-30T03:42:34.611Z,0.00
2022-10-30T03:43:34.598Z,0.00
2022-10-30T03:44:34.588Z,0.00
2022-10-30T03:45:34.571Z,0.00
2022-10-30T03:46:34.568Z,0.00
2022-10-30T03:47:34.552Z,0.00
2022-10-30T03:48:34.569Z,0.00
2022-10-30T03:49:34.540Z,0.00
2022-10-30T03:50:34.520Z,0.00
2022-10-30T03:51:34.508Z,0.00
2022-10-30T03:52:34.510Z,0.00
2022-10-30T03:53:34.491Z,0.00
2022-10-30T03:54:34.488Z,0.00
2022-10-30T03:55:34.480Z,0.00
2022-10-30T03:56:34.461Z,0.00
2022-10-30T03:57:34.441Z,0.00
2022-10-30T03:58:34.432Z,0.00
2022-10-30T03:59:34.418Z,0.00
2022-10-30T04:00:34.422Z,0.00
2022-10-30T04:01:34.527Z,0.00
2022-10-30T04:02:34.401Z,0.00
2022-10-30T04:03:34.382Z,0.00
2022-10-30T04:04:34.362Z,0.00
2022-10-30T04:05:34.347Z,0.00
2022-10-30T04:06:34.373Z,0.00
2022-10-30T04:07:34.334Z,0.00
2022-10-30T04:08:34.347Z,0.00
2022-10-30T04:09:34.302Z,0.00
2022-10-30T04:10:34.332Z,0.00
2022-10-30T04:11:34.304Z,0.00
2022-10-30T04:12:34.295Z,0.00
2022-10-30T04:13:34.274Z,0.00
2022-10-30T04:14:34.275Z,0.00
2022-10-30T04:15:34.273Z,0.00
2022-10-30T04:16:34.235Z,0.00
2022-10-30T04:17:34.217Z,0.00
2022-10-30T04:18:34.256Z,0.00
2022-10-30T04:19:34.196Z,0.00
2022-10-30T04:20:34.186Z,0.00
2022-10-30T04:21:34.195Z,0.00
2022-10-30T04:22:34.185Z,0.00
2022-10-30T04:23:34.176Z,0.00
2022-10-30T04:24:34.159Z,0.00
2022-10-30T04:25:34.137Z,0.00
2022-10-30T04:26:34.148Z,0.00
2022-10-30T04:27:34.115Z,0.00
2022-10-30T04:28:34.108Z,0.00
2022-10-30T04:29:34.088Z,0.00
2022-10-30T04:30:34.101Z,0.00
2022-10-30T04:31:34.097Z,0.00
2022-10-30T04:32:34.071Z,0.00
2022-10-30T04:33:34.047Z,0.00
2022-10-30T04:34:34.039Z,0.00
2022-10-30T04:35:34.031Z,0.00
2022-10-30T04:36:34.069Z,0.00
2022-10-30T04:37:34.009Z,0.00
2022-10-30T04:38:34.024Z,0.00
2022-10-30T04:39:33.990Z,0.00
2022-10-30T04:40:33.982Z,0.00
2022-10-30T04:41:33.972Z,0.00
2022-10-30T04:42:33.951Z,0.00
2022-10-30T04:43:33.951Z,0.00
2022-10-30T04:44:33.931Z,0.00
2022-10-30T04:45:33.911Z,0.00
2022-10-30T04:46:34.001Z,0.00
2022-10-30T04:48:33.893Z,0.00
2022-10-30T04:49:33.914Z,0.00
2022-10-30T04:50:33.872Z,0.00
2022-10-30T04:51:33.855Z,0.00
2022-10-30T04:52:33.844Z,0.00
2022-10-30T04:53:33.866Z,0.00
2022-10-30T04:54:33.820Z,0.00
2022-10-30T04:55:33.801Z,0.00
2022-10-30T04:56:33.795Z,0.00
2022-10-30T04:57:33.794Z,0.00
2022-10-30T04:58:33.784Z,0.00
2022-10-30T04:59:33.776Z,0.00
2022-10-30T05:00:33.766Z,0.00
2022-10-30T05:01:33.887Z,0.00
2022-10-30T05:02:33.872Z,0.00
2022-10-30T05:03:33.725Z,0.00
2022-10-30T05:04:33.760Z,0.00
2022-10-30T05:05:33.697Z,0.00
2022-10-30T05:06:33.694Z,0.00
2022-10-30T05:07:33.686Z,0.00
2022-10-30T05:08:33.689Z,0.00
2022-10-30T05:09:33.647Z,0.00
2022-10-30T05:10:33.680Z,0.00
2022-10-30T05:11:33.650Z,0.00
2022-10-30T05:12:33.625Z,0.00
2022-10-30T05:13:33.627Z,0.00
2022-10-30T05:14:33.617Z,0.00
2022-10-30T05:15:33.599Z,0.00
2022-10-30T05:16:33.618Z,0.00
2022-10-30T05:17:33.570Z,0.00
2022-10-30T05:18:33.588Z,0.00
2022-10-30T05:19:33.560Z,0.00
2022-10-30T05:20:33.549Z,0.00
2022-10-30T05:21:33.551Z,0.00
2022-10-30T05:22:33.513Z,0.00
2022-10-30T05:23:33.521Z,0.00
2022-10-30T05:24:33.490Z,0.00
2022-10-30T05:25:33.481Z,0.00
2022-10-30T05:26:33.480Z,0.00
2022-10-30T05:27:33.480Z,0.00
2022-10-30T05:28:33.484Z,0.00
2022-10-30T05:29:33.445Z,0.00
2022-10-30T05:30:33.451Z,0.00
2022-10-30T05:31:33.451Z,0.00
2022-10-30T05:32:33.432Z,0.00
2022-10-30T05:33:33.402Z,0.00
2022-10-30T05:34:34.123Z,0.00
2022-10-30T05:35:33.522Z,0.00
2022-10-30T05:36:33.363Z,0.00
2022-10-30T05:37:33.382Z,0.00
2022-10-30T05:38:33.352Z,0.00
2022-10-30T05:39:33.336Z,0.00
2022-10-30T05:40:33.334Z,0.00
2022-10-30T05:41:33.314Z,4.00
2022-10-30T05:42:33.316Z,4.00
2022-10-30T05:43:33.289Z,4.00
2022-10-30T05:44:58.600Z,4.00
2022-10-30T05:45:34.275Z,4.00
2022-10-30T05:46:33.285Z,8.00
2022-10-30T05:47:33.254Z,4.00
2022-10-30T05:48:33.228Z,4.00
2022-10-30T05:49:33.226Z,12.00
2022-10-30T05:50:33.204Z,12.00
2022-10-30T05:51:37.925Z,8.00
2022-10-30T05:52:34.214Z,12.00
2022-10-30T05:53:33.176Z,16.00
2022-10-30T05:54:33.156Z,20.00
2022-10-30T05:55:33.197Z,24.00
2022-10-30T05:56:33.140Z,28.00
2022-10-30T05:57:33.158Z,32.00
2022-10-30T05:58:33.125Z,40.00
2022-10-30T05:59:33.129Z,44.00
2022-10-30T06:00:33.106Z,52.00
2022-10-30T06:01:33.260Z,60.00
2022-10-30T06:02:33.130Z,68.00
2022-10-30T06:03:33.089Z,72.00
2022-10-30T06:04:33.068Z,76.00
2022-10-30T06:05:33.060Z,84.00
2022-10-30T06:06:33.060Z,92.00
2022-10-30T06:07:33.055Z,100.00
2022-10-30T06:08:33.028Z,108.00
2022-10-30T06:09:33.022Z,120.00
2022-10-30T06:10:32.989Z,128.00
2022-10-30T06:11:33.009Z,144.00
2022-10-30T06:12:32.970Z,160.00
2022-10-30T06:13:32.960Z,172.00
2022-10-30T06:14:32.960Z,188.00
2022-10-30T06:15:32.940Z,208.00
2022-10-30T06:17:32.934Z,244.00
2022-10-30T06:18:32.913Z,268.00
2022-10-30T06:19:32.893Z,284.00
2022-10-30T06:20:32.882Z,296.00
2022-10-30T06:21:32.893Z,316.00
2022-10-30T06:22:32.865Z,336.00
2022-10-30T06:23:32.862Z,356.00
2022-10-30T06:24:32.850Z,376.00
2022-10-30T06:25:37.779Z,396.00
2022-10-30T06:26:33.837Z,416.00
2022-10-30T06:27:32.824Z,428.00
2022-10-30T06:28:32.793Z,448.00
2022-10-30T06:29:32.813Z,460.00
2022-10-30T06:30:32.811Z,472.00
2022-10-30T06:31:32.824Z,492.00
2022-10-30T06:32:32.774Z,508.00
2022-10-30T06:33:32.757Z,532.00
2022-10-30T06:34:32.732Z,556.00
2022-10-30T06:35:32.725Z,576.00
2022-10-30T06:36:32.786Z,600.00
2022-10-30T06:37:32.726Z,628.00
2022-10-30T06:38:32.685Z,652.00
2022-10-30T06:39:32.685Z,676.00
2022-10-30T06:40:32.676Z,704.00
2022-10-30T06:41:32.689Z,728.00
2022-10-30T06:42:32.676Z,752.00
2022-10-30T06:43:32.637Z,780.00
2022-10-30T06:44:32.616Z,804.00
2022-10-30T06:45:32.627Z,824.00
2022-10-30T06:46:33.862Z,844.00
2022-10-30T06:47:32.607Z,864.00
2022-10-30T06:48:32.740Z,884.00
2022-10-30T06:49:32.589Z,900.00
2022-10-30T06:50:33.710Z,912.00
2022-10-30T06:51:32.588Z,928.00
2022-10-30T06:52:32.644Z,944.00
2022-10-30T06:53:32.586Z,956.00
2022-10-30T06:54:33.569Z,972.00
2022-10-30T06:55:32.538Z,984.00
2022-10-30T06:56:32.608Z,1000.00
2022-10-30T06:57:32.532Z,1012.00
2022-10-30T06:58:32.567Z,1032.00
2022-10-30T06:59:32.479Z,1048.00
2022-10-30T07:00:32.686Z,1064.00
2022-10-30T07:01:32.538Z,1080.00
2022-10-30T07:02:33.761Z,1088.00
2022-10-30T07:03:32.442Z,1104.00
2022-10-30T07:04:33.011Z,1120.00
2022-10-30T07:05:32.432Z,1136.00
2022-10-30T07:06:32.393Z,1148.00
2022-10-30T07:07:32.393Z,1160.00
2022-10-30T07:08:32.391Z,1172.00
2022-10-30T07:09:32.350Z,1188.00
2022-10-30T07:10:32.350Z,1204.00
2022-10-30T07:11:32.342Z,1220.00
2022-10-30T07:12:32.313Z,1236.00
2022-10-30T07:13:32.310Z,1248.00
2022-10-30T07:14:32.302Z,1264.00
2022-10-30T07:15:32.351Z,1276.00
2022-10-30T07:16:32.303Z,1292.00
2022-10-30T07:17:32.272Z,1300.00
2022-10-30T07:18:32.251Z,1308.00
2022-10-30T07:19:32.266Z,1316.00
2022-10-30T07:20:32.246Z,1320.00
2022-10-30T07:21:32.255Z,1324.00
2022-10-30T07:22:32.225Z,1328.00
2022-10-30T07:23:32.204Z,1332.00
2022-10-30T07:24:32.216Z,1340.00
2022-10-30T07:25:32.198Z,1348.00
2022-10-30T07:26:32.168Z,1360.00
2022-10-30T07:27:32.162Z,1372.00
2022-10-30T07:28:32.157Z,1388.00
2022-10-30T07:29:32.145Z,1404.00
2022-10-30T07:30:32.138Z,1420.00
2022-10-30T07:31:42.400Z,1428.00
2022-10-30T07:32:33.107Z,1436.00
2022-10-30T07:33:32.152Z,1444.00
2022-10-30T07:34:32.093Z,1456.00
2022-10-30T07:35:32.087Z,1468.00
2022-10-30T07:36:32.078Z,1476.00
2022-10-30T07:37:32.094Z,1488.00
2022-10-30T07:38:32.056Z,1504.00
2022-10-30T07:39:32.065Z,1516.00
2022-10-30T07:40:32.017Z,1544.00
2022-10-30T07:41:32.026Z,1572.00
2022-10-30T07:42:32.008Z,1596.00
2022-10-30T07:43:32.023Z,1616.00
2022-10-30T07:44:31.998Z,1680.00
2022-10-30T07:45:31.987Z,1704.00
2022-10-30T07:46:31.939Z,1724.00
2022-10-30T07:47:31.938Z,1748.00
2022-10-30T07:48:31.926Z,1780.00
2022-10-30T07:49:31.950Z,1796.00
2022-10-30T07:50:31.937Z,1800.00
2022-10-30T07:51:31.909Z,1800.00
2022-10-30T07:52:31.881Z,1800.00
2022-10-30T07:53:31.879Z,1800.00
2022-10-30T07:54:31.901Z,1796.00
2022-10-30T07:55:31.871Z,1792.00
2022-10-30T07:56:31.841Z,1788.00
2022-10-30T07:57:31.851Z,1784.00
2022-10-30T07:58:31.833Z,1772.00
2022-10-30T07:59:31.820Z,1768.00
2022-10-30T08:00:31.834Z,1768.00
2022-10-30T08:01:31.967Z,1768.00
2022-10-30T08:02:31.957Z,1764.00
2022-10-30T08:03:31.772Z,1760.00
2022-10-30T08:04:31.773Z,1756.00
2022-10-30T08:05:31.784Z,1756.00
2022-10-30T08:06:31.743Z,1756.00
2022-10-30T08:07:31.728Z,1756.00
2022-10-30T08:08:31.714Z,1764.00
2022-10-30T08:09:31.702Z,1772.00
2022-10-30T08:10:31.696Z,1776.00
2022-10-30T08:11:31.704Z,1792.00
2022-10-30T08:12:31.694Z,1808.00
2022-10-30T08:13:31.674Z,1824.00
2022-10-30T08:14:31.645Z,1828.00
2022-10-30T08:15:31.645Z,1832.00
2022-10-30T08:16:31.627Z,1832.00
2022-10-30T08:17:31.635Z,1832.00
2022-10-30T08:18:31.605Z,1828.00
2022-10-30T08:19:31.605Z,1832.00
2022-10-30T08:20:31.594Z,1828.00
2022-10-30T08:21:31.659Z,1824.00
2022-10-30T08:22:31.560Z,1820.00
2022-10-30T08:23:32.281Z,1816.00
2022-10-30T08:24:31.547Z,1808.00
2022-10-30T08:25:32.246Z,1804.00
2022-10-30T08:26:31.579Z,1796.00
2022-10-30T08:27:32.227Z,1792.00
2022-10-30T08:28:32.894Z,1788.00
2022-10-30T08:29:32.209Z,1784.00
2022-10-30T08:30:31.505Z,1776.00
2022-10-30T08:31:31.566Z,1768.00
2022-10-30T08:32:31.556Z,1764.00
2022-10-30T08:33:31.666Z,1764.00
2022-10-30T08:34:31.457Z,1764.00
2022-10-30T08:35:31.484Z,1768.00
2022-10-30T08:36:31.400Z,1768.00
2022-10-30T08:37:31.419Z,1772.00
2022-10-30T08:38:31.410Z,1772.00
2022-10-30T08:39:31.383Z,1776.00
2022-10-30T08:40:31.377Z,1780.00
2022-10-30T08:41:31.380Z,1784.00
2022-10-30T08:42:31.439Z,1788.00
2022-10-30T08:43:31.331Z,1796.00
2022-10-30T08:44:31.333Z,1804.00
2022-10-30T08:45:31.597Z,1808.00
2022-10-30T08:46:31.301Z,1812.00
2022-10-30T08:47:31.311Z,1824.00
2022-10-30T08:48:31.292Z,1824.00
2022-10-30T08:49:31.267Z,1832.00
2022-10-30T08:50:31.274Z,1836.00
2022-10-30T08:51:31.235Z,1844.00
2022-10-30T08:52:31.243Z,1852.00
2022-10-30T08:53:31.222Z,1856.00
2022-10-30T08:54:31.214Z,1868.00
2022-10-30T08:55:31.228Z,1876.00
2022-10-30T08:56:31.206Z,1884.00
2022-10-30T08:57:31.184Z,1892.00
2022-10-30T08:58:31.198Z,1904.00
2022-10-30T08:59:31.175Z,1916.00
2022-10-30T09:00:31.182Z,1920.00
2022-10-30T09:01:31.328Z,1936.00
2022-10-30T09:02:31.240Z,1944.00
2022-10-30T09:03:31.112Z,1956.00
2022-10-30T09:04:31.168Z,1964.00
2022-10-30T09:05:31.097Z,1976.00
2022-10-30T09:06:31.108Z,1980.00
2022-10-30T09:07:31.076Z,1976.00
2022-10-30T09:08:31.090Z,2004.00
2022-10-30T09:09:31.068Z,2012.00
2022-10-30T09:10:31.071Z,2016.00
2022-10-30T09:11:31.061Z,2028.00
2022-10-30T09:12:31.066Z,2036.00
2022-10-30T09:13:31.027Z,2024.00
2022-10-30T09:14:31.007Z,2052.00
2022-10-30T09:15:31.009Z,2060.00
2022-10-30T09:16:30.979Z,2064.00
2022-10-30T09:17:30.976Z,2072.00
2022-10-30T09:18:30.970Z,2080.00
2022-10-30T09:19:30.949Z,2084.00
2022-10-30T09:20:30.942Z,2032.00
2022-10-30T09:21:30.941Z,2092.00
2022-10-30T09:22:30.930Z,2096.00
2022-10-30T09:23:30.911Z,2104.00
2022-10-30T09:24:30.901Z,2112.00
2022-10-30T09:25:30.890Z,2116.00
2022-10-30T09:26:30.891Z,2124.00
2022-10-30T09:27:30.853Z,2132.00
2022-10-30T09:28:30.887Z,2136.00
2022-10-30T09:29:30.852Z,2156.00
2022-10-30T09:30:30.831Z,2168.00
2022-10-30T09:31:30.831Z,2184.00
2022-10-30T09:32:30.871Z,2200.00
2022-10-30T09:33:30.801Z,2216.00
2022-10-30T09:34:30.805Z,2224.00
2022-10-30T09:35:30.763Z,2236.00
2022-10-30T09:36:30.796Z,2240.00
2022-10-30T09:37:30.810Z,2248.00
2022-10-30T09:38:30.745Z,2256.00
2022-10-30T09:39:30.733Z,2268.00
2022-10-30T09:40:30.771Z,2288.00
2022-10-30T09:41:30.717Z,2308.00
2022-10-30T09:42:30.695Z,2320.00
2022-10-30T09:43:30.682Z,2336.00
2022-10-30T09:44:30.675Z,2364.00
2022-10-30T09:45:30.687Z,2388.00
2022-10-30T09:46:30.661Z,2400.00
2022-10-30T09:47:30.636Z,2432.00
2022-10-30T09:48:30.626Z,2440.00
2022-10-30T09:49:30.616Z,2472.00
2022-10-30T09:50:32.199Z,2496.00
2022-10-30T09:51:31.616Z,2516.00
2022-10-30T09:52:30.605Z,2528.00
2022-10-30T09:53:30.570Z,2540.00
2022-10-30T09:54:30.567Z,2544.00
2022-10-30T09:55:30.585Z,2576.00
2022-10-30T09:56:30.545Z,2616.00
2022-10-30T09:57:30.533Z,2628.00
2022-10-30T09:58:30.540Z,2640.00
2022-10-30T09:59:30.524Z,2648.00
2022-10-30T10:00:30.509Z,2656.00
2022-10-30T10:01:30.647Z,2668.00
2022-10-30T10:02:30.575Z,2684.00
2022-10-30T10:03:30.468Z,2704.00
2022-10-30T10:04:30.450Z,2692.00
2022-10-30T10:05:30.440Z,2724.00
2022-10-30T10:06:30.449Z,2688.00
2022-10-30T10:07:30.450Z,2768.00
2022-10-30T10:08:30.418Z,2860.00
2022-10-30T10:09:30.466Z,2900.00
2022-10-30T10:10:30.401Z,2932.00
2022-10-30T10:11:30.383Z,2956.00
2022-10-30T10:12:30.376Z,3004.00
2022-10-30T10:13:30.354Z,3048.00
2022-10-30T10:14:30.373Z,3080.00
2022-10-30T10:15:30.332Z,3196.00
2022-10-30T10:16:30.373Z,3256.00
2022-10-30T10:17:30.322Z,3300.00
2022-10-30T10:18:30.300Z,3348.00
2022-10-30T10:19:30.282Z,3368.00
2022-10-30T10:20:30.319Z,3440.00
2022-10-30T10:21:30.275Z,3496.00
2022-10-30T10:22:30.263Z,3476.00
2022-10-30T10:23:30.254Z,3492.00
2022-10-30T10:24:30.245Z,3540.00
2022-10-30T10:25:30.256Z,3608.00
2022-10-30T10:26:30.215Z,3680.00
2022-10-30T10:27:30.196Z,3860.00
2022-10-30T10:28:35.773Z,3960.00
2022-10-30T10:29:31.186Z,4040.00
2022-10-30T10:30:30.166Z,4124.00
2022-10-30T10:31:30.194Z,4204.00
2022-10-30T10:32:30.185Z,4280.00
2022-10-30T10:33:30.150Z,4340.00
2022-10-30T10:34:30.136Z,4388.00
2022-10-30T10:35:30.125Z,4408.00
2022-10-30T10:36:30.111Z,4400.00
2022-10-30T10:37:30.138Z,4416.00
2022-10-30T10:38:30.097Z,4432.00
2022-10-30T10:39:30.108Z,4440.00
2022-10-30T10:40:30.068Z,4456.00
2022-10-30T10:41:30.069Z,4456.00
2022-10-30T10:42:30.068Z,4464.00
2022-10-30T10:43:30.146Z,4468.00
2022-10-30T10:44:30.059Z,4468.00
2022-10-30T10:45:30.042Z,4476.00
2022-10-30T10:46:30.083Z,4440.00
2022-10-30T10:47:30.842Z,4436.00
2022-10-30T10:48:29.992Z,4452.00
2022-10-30T10:49:29.990Z,4436.00
2022-10-30T10:50:30.065Z,4484.00
2022-10-30T10:51:29.972Z,4536.00
2022-10-30T10:52:29.992Z,4556.00
2022-10-30T10:53:29.969Z,4628.00
2022-10-30T10:54:29.921Z,4744.00
2022-10-30T10:55:29.915Z,4800.00
2022-10-30T10:56:29.916Z,4824.00
2022-10-30T10:57:29.971Z,4856.00
2022-10-30T10:58:29.892Z,4892.00
2022-10-30T10:59:29.905Z,4904.00
2022-10-30T11:00:29.864Z,4984.00
2022-10-30T11:01:29.939Z,5008.00
2022-10-30T11:02:29.961Z,5048.00
2022-10-30T11:03:29.851Z,5092.00
2022-10-30T11:04:29.806Z,5200.00
2022-10-30T11:05:29.791Z,5316.00
2022-10-30T11:06:29.774Z,5424.00
2022-10-30T11:07:29.769Z,5536.00
2022-10-30T11:08:29.786Z,5640.00
2022-10-30T11:09:29.741Z,5756.00
2022-10-30T11:10:29.778Z,5780.00
2022-10-30T11:11:29.717Z,5852.00
2022-10-30T11:12:33.634Z,5964.00
2022-10-30T11:13:30.710Z,6120.00
2022-10-30T11:14:29.694Z,6164.00
2022-10-30T11:15:29.678Z,6316.00
2022-10-30T11:16:29.688Z,6476.00
2022-10-30T11:17:29.668Z,6640.00
2022-10-30T11:18:29.652Z,6872.00
2022-10-30T11:19:29.662Z,7008.00
2022-10-30T11:20:29.652Z,7180.00
2022-10-30T11:21:29.616Z,7436.00
2022-10-30T11:22:29.653Z,7756.00
2022-10-30T11:23:29.619Z,7996.00
2022-10-30T11:24:29.603Z,8340.00
2022-10-30T11:25:31.388Z,8840.00
2022-10-30T11:26:29.578Z,9364.00
2022-10-30T11:27:29.567Z,9848.00
2022-10-30T11:28:29.545Z,10452.00
2022-10-30T11:29:29.540Z,11164.00
2022-10-30T11:30:29.533Z,12048.00
2022-10-30T11:31:29.533Z,12852.00
2022-10-30T11:32:29.516Z,13688.00
2022-10-30T11:33:29.515Z,14124.00
2022-10-30T11:34:29.483Z,14608.00
2022-10-30T11:35:29.495Z,15776.00
2022-10-30T11:36:29.495Z,17984.00
2022-10-30T11:37:29.455Z,25504.00
2022-10-30T11:38:29.436Z,33568.00
2022-10-30T11:39:29.422Z,35488.00
2022-10-30T11:40:29.425Z,39424.00
2022-10-30T11:41:29.437Z,40000.00
2022-10-30T11:42:29.386Z,38592.00
2022-10-30T11:43:29.396Z,36736.00
2022-10-30T11:44:29.375Z,37376.00
2022-10-30T11:45:29.354Z,40128.00
2022-10-30T11:46:29.368Z,41568.00
2022-10-30T11:47:29.385Z,38880.00
2022-10-30T11:48:29.341Z,38176.00
2022-10-30T11:49:29.319Z,39392.00
2022-10-30T11:50:29.309Z,39616.00
2022-10-30T11:51:29.453Z,43072.00
2022-10-30T11:52:29.311Z,45184.00
2022-10-30T11:53:29.281Z,42176.00
2022-10-30T11:54:29.273Z,35680.00
2022-10-30T11:55:29.262Z,28416.00
2022-10-30T11:56:29.245Z,22880.00
2022-10-30T11:57:29.263Z,21056.00
2022-10-30T11:58:29.243Z,20448.00
2022-10-30T11:59:29.223Z,22592.00
2022-10-30T12:00:29.205Z,21632.00
2022-10-30T12:01:29.220Z,22208.00
2022-10-30T12:02:29.453Z,25056.00
2022-10-30T12:03:29.175Z,27808.00
2022-10-30T12:04:29.175Z,27424.00
2022-10-30T12:05:29.216Z,25568.00
2022-10-30T12:06:29.171Z,24480.00
2022-10-30T12:07:29.125Z,24000.00
2022-10-30T12:08:29.117Z,21504.00
2022-10-30T12:09:29.118Z,21568.00
2022-10-30T12:10:29.109Z,20928.00
2022-10-30T12:11:29.120Z,18656.00
2022-10-30T12:12:29.082Z,18944.00
2022-10-30T12:13:29.079Z,19296.00
2022-10-30T12:14:29.055Z,18912.00
2022-10-30T12:15:29.063Z,19392.00
2022-10-30T12:16:29.044Z,21344.00
2022-10-30T12:17:29.162Z,24544.00
2022-10-30T12:19:29.010Z,26656.00
2022-10-30T12:20:29.004Z,28384.00
2022-10-30T12:21:28.993Z,28768.00
2022-10-30T12:22:29.004Z,24576.00
2022-10-30T12:23:28.971Z,25024.00
2022-10-30T12:24:29.004Z,23488.00
2022-10-30T12:25:28.946Z,22176.00
2022-10-30T12:26:28.926Z,22304.00
2022-10-30T12:27:28.928Z,22656.00
2022-10-30T12:28:28.919Z,21312.00
2022-10-30T12:29:41.643Z,20032.00
2022-10-30T12:30:29.925Z,21952.00
2022-10-30T12:31:28.886Z,24960.00
2022-10-30T12:32:28.876Z,22688.00
2022-10-30T12:33:28.868Z,22528.00
2022-10-30T12:34:28.846Z,25536.00
2022-10-30T12:35:28.843Z,27456.00
2022-10-30T12:36:28.855Z,26592.00
2022-10-30T12:37:28.828Z,28544.00
2022-10-30T12:38:28.821Z,29856.00
2022-10-30T12:39:28.810Z,30816.00
2022-10-30T12:40:28.803Z,32480.00